Terminal Aerodrome Forecast
Issued by NWS

Home | Current Version | Previous Version | Text Only | Print | Product List | Glossary On
Versions: 1 2 3 4 5 6 7 8 9 10 11 12
079
FTUS45 KFGZ 281120
TAFPRC
TAF
KPRC 281120Z 2812/2912 27008KT P6SM FEW120 FEW250
     FM281600 32016G24KT P6SM FEW060
     FM290300 31008KT P6SM SKC=

USA.gov is the U.S. government's official web portal to all federal, state and local government web resources and services.